createdAt,value
2019-02-23T00:02:27.817Z,76.07
2019-02-23T00:07:30.510Z,76.00
2019-02-23T00:12:33.209Z,75.71
2019-02-23T00:17:35.894Z,75.66
2019-02-23T00:22:38.601Z,75.56
2019-02-23T00:27:41.342Z,75.36
2019-02-23T00:32:44.007Z,75.54
2019-02-23T00:37:46.743Z,76.25
2019-02-23T00:42:49.419Z,76.41
2019-02-23T00:47:52.109Z,76.45
2019-02-23T00:52:54.822Z,76.72
2019-02-23T00:57:57.507Z,77.32
2019-02-23T01:03:00.214Z,77.30
2019-02-23T01:08:02.894Z,77.55
2019-02-23T01:13:05.577Z,77.64
2019-02-23T01:18:08.275Z,77.39
2019-02-23T01:23:10.972Z,76.25
2019-02-23T01:28:13.686Z,74.96
2019-02-23T01:33:16.364Z,73.31
2019-02-23T01:38:19.052Z,72.17
2019-02-23T01:43:21.735Z,71.44
2019-02-23T01:48:24.408Z,71.16
2019-02-23T01:53:27.134Z,71.15
2019-02-23T01:58:29.826Z,70.75
2019-02-23T02:03:32.532Z,70.36
2019-02-23T02:08:36.037Z,70.29
2019-02-23T02:13:38.902Z,70.34
2019-02-23T02:18:41.596Z,70.34
2019-02-23T02:23:44.273Z,70.23
2019-02-23T02:28:47.055Z,69.88
2019-02-23T02:34:12.766Z,69.73
2019-02-23T02:39:15.795Z,69.84
2019-02-23T02:44:18.486Z,69.51
2019-02-23T02:49:21.167Z,69.29
2019-02-23T02:54:23.893Z,69.17
2019-02-23T02:59:26.575Z,69.16
2019-02-23T03:04:29.270Z,69.50
2019-02-23T03:09:31.975Z,69.53
2019-02-23T03:14:34.674Z,69.07
2019-02-23T03:19:37.481Z,70.23
2019-02-23T03:24:40.179Z,70.65
2019-02-23T03:29:42.911Z,70.31
2019-02-23T03:34:45.607Z,70.18
2019-02-23T03:39:48.336Z,70.53
2019-02-23T03:44:51.030Z,70.50
2019-02-23T03:49:53.717Z,69.75
2019-02-23T03:54:56.412Z,69.62
2019-02-23T03:59:59.117Z,69.81
2019-02-23T04:05:01.822Z,70.18
2019-02-23T04:10:04.855Z,70.46
2019-02-23T04:15:07.704Z,70.63
2019-02-23T04:20:10.409Z,70.22
2019-02-23T04:25:13.151Z,70.59
2019-02-23T04:30:15.860Z,70.99
2019-02-23T04:35:18.563Z,71.33
2019-02-23T04:40:21.256Z,70.95
2019-02-23T04:45:23.954Z,70.93
2019-02-23T04:50:26.682Z,71.24
2019-02-23T04:55:29.390Z,70.82
2019-02-23T05:00:32.078Z,70.00
2019-02-23T05:05:34.790Z,70.08
2019-02-23T05:10:37.500Z,69.99
2019-02-23T05:15:40.195Z,70.57
2019-02-23T05:20:42.917Z,70.07
2019-02-23T05:25:45.673Z,70.03
2019-02-23T05:30:48.381Z,69.70
2019-02-23T05:35:51.121Z,69.65
2019-02-23T05:40:53.803Z,70.14
2019-02-23T05:45:56.512Z,69.72
2019-02-23T05:50:59.214Z,69.00
2019-02-23T05:56:02.012Z,69.68
2019-02-23T06:01:04.731Z,69.76
2019-02-23T06:06:25.238Z,69.94
2019-02-23T06:11:27.988Z,69.91
2019-02-23T06:16:30.868Z,69.85
2019-02-23T06:21:33.726Z,69.76
2019-02-23T06:26:37.785Z,69.71
2019-02-23T06:31:40.499Z,69.61
2019-02-23T06:36:43.549Z,69.30
2019-02-23T06:41:46.445Z,69.48
2019-02-23T06:46:49.519Z,69.24
2019-02-23T06:52:03.470Z,69.46
2019-02-23T06:56:57.000Z,69.11
2019-02-23T07:01:59.722Z,69.34
2019-02-23T07:07:02.423Z,69.18
2019-02-23T07:12:05.350Z,68.79
2019-02-23T07:17:08.598Z,68.21
2019-02-23T07:22:15.639Z,67.52
2019-02-23T07:27:16.125Z,66.98
2019-02-23T07:32:21.363Z,66.55
2019-02-23T07:37:25.673Z,66.22
2019-02-23T07:42:28.383Z,66.27
2019-02-23T07:47:31.250Z,65.92
2019-02-23T07:52:33.974Z,65.53
2019-02-23T08:02:53.398Z,64.55
2019-02-23T08:07:57.441Z,64.09
2019-02-23T08:13:12.999Z,63.74
2019-02-23T08:18:16.046Z,63.33
2019-02-23T08:23:18.802Z,62.82
2019-02-23T08:28:21.627Z,62.75
2019-02-23T08:33:24.392Z,64.12
2019-02-23T08:38:46.556Z,63.67
2019-02-23T08:43:49.239Z,62.33
2019-02-23T08:48:51.903Z,61.55
2019-02-23T08:53:54.583Z,61.29
2019-02-23T08:58:57.255Z,61.05
2019-02-23T09:03:59.928Z,60.46
2019-02-23T09:09:03.935Z,59.75
2019-02-23T09:14:06.634Z,59.72
2019-02-23T09:19:09.319Z,59.23
2019-02-23T09:24:12.012Z,58.64
2019-02-23T09:29:14.708Z,58.07
2019-02-23T09:34:17.399Z,57.70
2019-02-23T09:39:20.060Z,58.42
2019-02-23T09:44:22.726Z,58.17
2019-02-23T09:49:25.412Z,57.36
2019-02-23T09:54:30.560Z,56.81
2019-02-23T09:59:32.699Z,56.89
2019-02-23T10:04:35.401Z,56.73
2019-02-23T10:09:38.065Z,56.38
2019-02-23T10:14:40.739Z,55.69
2019-02-23T10:19:43.433Z,55.58
2019-02-23T10:24:46.113Z,54.79
2019-02-23T10:29:48.859Z,54.51
2019-02-23T10:34:51.554Z,54.90
2019-02-23T10:39:54.223Z,54.19
2019-02-23T10:44:56.890Z,54.11
2019-02-23T10:49:59.553Z,53.83
2019-02-23T10:55:02.358Z,53.36
2019-02-23T11:00:13.499Z,53.46
2019-02-23T11:05:16.650Z,52.81
2019-02-23T11:10:19.734Z,53.14
2019-02-23T11:15:22.733Z,52.24
2019-02-23T11:20:25.512Z,51.54
2019-02-23T11:25:28.252Z,51.36
2019-02-23T11:30:30.959Z,50.64
2019-02-23T11:35:33.679Z,50.49
2019-02-23T11:40:36.362Z,50.06
2019-02-23T11:45:39.056Z,49.78
2019-02-23T11:50:41.904Z,48.45
2019-02-23T12:06:06.415Z,48.10
2019-02-23T12:11:09.092Z,48.21
2019-02-23T12:16:11.778Z,47.01
2019-02-23T12:21:14.457Z,46.08
2019-02-23T12:26:17.273Z,47.17
2019-02-23T12:31:19.953Z,49.23
2019-02-23T12:36:22.623Z,50.97
2019-02-23T12:41:25.306Z,51.62
2019-02-23T12:46:28.103Z,51.98
2019-02-23T12:51:30.822Z,51.99
2019-02-23T12:56:33.647Z,51.90
2019-02-23T13:01:37.871Z,51.38
2019-02-23T13:06:40.639Z,51.42
2019-02-23T13:11:58.090Z,50.83
2019-02-23T13:17:20.617Z,49.67
2019-02-23T13:23:48.656Z,47.97
2019-02-23T13:29:24.870Z,47.95
2019-02-23T13:35:16.519Z,48.89
2019-02-23T13:41:15.834Z,49.71
2019-02-23T13:46:50.573Z,48.12
2019-02-23T13:53:08.613Z,48.56
2019-02-23T13:58:32.107Z,48.14
2019-02-23T14:04:14.865Z,48.73
2019-02-23T14:10:29.940Z,49.78
2019-02-23T14:16:15.456Z,50.23
2019-02-23T14:22:37.527Z,50.97
2019-02-23T14:28:52.580Z,50.98
2019-02-23T14:34:56.816Z,50.63
2019-02-23T14:40:47.566Z,50.13
2019-02-23T14:47:06.414Z,49.30
2019-02-23T14:53:17.786Z,48.12
2019-02-23T14:58:35.357Z,47.14
2019-02-23T15:04:23.565Z,47.26
2019-02-23T15:09:59.537Z,46.58
2019-02-23T15:16:17.186Z,46.13
2019-02-23T15:22:15.981Z,45.99
2019-02-23T15:28:07.446Z,46.05
2019-02-23T15:34:01.336Z,46.19
2019-02-23T15:40:11.589Z,46.03
2019-02-23T15:46:03.972Z,44.88
2019-02-23T15:51:06.875Z,43.96
2019-02-23T15:56:09.613Z,43.42
2019-02-23T16:01:12.295Z,42.92
2019-02-23T16:06:14.990Z,42.21
2019-02-23T16:11:17.666Z,41.77
2019-02-23T16:16:20.382Z,40.84
2019-02-23T16:21:23.065Z,40.43
2019-02-23T16:26:25.785Z,41.19
2019-02-23T16:31:28.482Z,41.00
2019-02-23T16:36:31.296Z,42.89
2019-02-23T16:41:34.023Z,42.87
2019-02-23T16:46:36.797Z,44.14
2019-02-23T16:51:39.466Z,45.75
2019-02-23T16:56:42.154Z,47.57
2019-02-23T17:01:44.827Z,48.93
2019-02-23T17:06:47.521Z,50.43
2019-02-23T17:11:50.192Z,51.20
2019-02-23T17:16:52.871Z,51.61
2019-02-23T17:21:55.544Z,52.42
2019-02-23T17:26:58.280Z,53.39
2019-02-23T17:32:00.953Z,54.07
2019-02-23T17:37:03.627Z,54.57
2019-02-23T17:42:06.302Z,55.17
2019-02-23T17:47:09.020Z,55.12
2019-02-23T17:52:11.738Z,55.46
2019-02-23T17:57:14.709Z,56.79
2019-02-23T18:02:17.623Z,57.23
2019-02-23T18:07:20.336Z,57.97
2019-02-23T18:12:23.764Z,59.24
2019-02-23T18:17:26.453Z,59.93
2019-02-23T18:22:29.133Z,59.76
2019-02-23T18:27:31.859Z,60.31
2019-02-23T18:32:34.567Z,60.70
2019-02-23T18:42:48.190Z,60.72
2019-02-23T18:47:50.857Z,60.64
2019-02-23T18:52:53.718Z,60.39
2019-02-23T18:57:56.470Z,60.41
2019-02-23T19:02:59.176Z,60.66
2019-02-23T19:08:01.943Z,60.92
2019-02-23T19:13:04.675Z,61.06
2019-02-23T19:18:07.838Z,60.94
2019-02-23T19:23:10.602Z,60.78
2019-02-23T19:28:13.507Z,60.94
2019-02-23T19:33:16.304Z,61.23
2019-02-23T19:38:19.072Z,61.52
2019-02-23T19:43:21.775Z,61.61
2019-02-23T19:48:24.458Z,61.85
2019-02-23T19:53:27.221Z,62.05
2019-02-23T19:58:29.911Z,62.21
2019-02-23T20:03:32.633Z,62.05
2019-02-23T20:08:35.467Z,62.43
2019-02-23T20:13:38.203Z,62.92
2019-02-23T20:18:40.899Z,62.68
2019-02-23T20:23:43.594Z,62.78
2019-02-23T20:28:46.324Z,63.23
2019-02-23T20:33:49.026Z,63.49
2019-02-23T20:38:51.722Z,64.07
2019-02-23T20:43:54.411Z,64.26
2019-02-23T20:48:57.145Z,64.49
2019-02-23T20:53:59.850Z,65.16
2019-02-23T20:59:02.674Z,65.31
2019-02-23T21:09:11.691Z,65.63
2019-02-23T21:14:14.386Z,66.23
2019-02-23T21:19:17.145Z,66.66
2019-02-23T21:24:19.845Z,66.69
2019-02-23T21:29:22.619Z,66.81
2019-02-23T21:34:25.310Z,67.39
2019-02-23T21:39:28.055Z,67.60
2019-02-23T21:44:30.750Z,67.49
2019-02-23T21:49:33.502Z,67.56
2019-02-23T21:54:36.232Z,67.64
2019-02-23T21:59:41.552Z,67.60
2019-02-23T22:04:46.657Z,67.40
2019-02-23T22:09:49.710Z,67.48
2019-02-23T22:14:52.621Z,67.57
2019-02-23T22:19:55.637Z,67.81
2019-02-23T22:24:58.489Z,68.03
2019-02-23T22:30:01.454Z,68.18
2019-02-23T22:35:04.475Z,67.99
2019-02-23T22:40:07.155Z,67.88
2019-02-23T22:45:10.147Z,68.50
2019-02-23T22:50:12.962Z,68.67
2019-02-23T22:55:16.061Z,68.94
2019-02-23T23:07:05.651Z,69.17
2019-02-23T23:12:09.560Z,68.80
2019-02-23T23:18:12.075Z,68.64
2019-02-23T23:22:33.316Z,68.86
2019-02-23T23:27:36.421Z,68.97
2019-02-23T23:32:41.831Z,68.71
2019-02-23T23:37:44.871Z,68.59
2019-02-23T23:42:47.703Z,68.25
2019-02-23T23:47:50.565Z,67.77
2019-02-23T23:52:53.320Z,67.44
2019-02-23T23:57:58.613Z,67.16
